Time;durP1;ratioP1;P1;durP2;ratioP2;P2;SDS_P1;SDS_P2;PMS_P1;PMS_P2;Temp;Humidity;BMP_temperature;BMP_pressure;BME280_temperature;BME280_humidity;BME280_pressure;Samples;Min_cycle;Max_cycle;Signal;HPM_P1;HPM_P2
2023/11/08 00:01:47;;;;;;;2.57;1.47;;;;;;;;;;5073820;28;20090;-85
2023/11/08 00:04:12;;;;;;;6.90;1.48;;;;;;;;;;5055867;28;20651;-85
2023/11/08 00:06:37;;;;;;;5.90;1.17;;;;;;;;;;5073823;28;20050;-85
2023/11/08 00:09:02;;;;;;;8.63;1.70;;;;;;;;;;5073436;28;20804;-85
2023/11/08 00:11:28;;;;;;;6.93;1.73;;;;;;;;;;5055527;28;20073;-85
2023/11/08 00:13:54;;;;;;;3.90;1.17;;;;;;;;;;5055704;28;20020;-85
2023/11/08 00:16:19;;;;;;;8.05;1.90;;;;;;;;;;5055613;28;20257;-85
2023/11/08 00:18:45;;;;;;;7.32;1.58;;;;;;;;;;5073453;28;20020;-84
2023/11/08 00:21:10;;;;;;;5.00;1.45;;;;;;;;;;5055620;28;20028;-84
2023/11/08 00:23:35;;;;;;;5.82;1.23;;;;;;;;;;5073300;28;20024;-84
2023/11/08 00:26:01;;;;;;;4.20;1.45;;;;;;;;;;5073514;28;20025;-84
2023/11/08 00:28:26;;;;;;;3.55;0.90;;;;;;;;;;5055508;28;20023;-85
2023/11/08 00:30:52;;;;;;;5.30;1.35;;;;;;;;;;5073351;28;20384;-85
2023/11/08 00:33:17;;;;;;;5.00;1.45;;;;;;;;;;5073412;28;20025;-85
2023/11/08 00:35:43;;;;;;;3.23;1.20;;;;;;;;;;5055333;28;20021;-85
2023/11/08 00:38:08;;;;;;;6.47;1.33;;;;;;;;;;5072962;28;20315;-85
2023/11/08 00:40:33;;;;;;;3.67;1.17;;;;;;;;;;5072756;28;20456;-85
2023/11/08 00:42:58;;;;;;;6.43;1.60;;;;;;;;;;5055320;28;20017;-85
2023/11/08 00:45:24;;;;;;;5.45;1.30;;;;;;;;;;5055337;28;20027;-85
2023/11/08 00:47:50;;;;;;;4.47;1.37;;;;;;;;;;5055197;28;20330;-85
2023/11/08 00:50:15;;;;;;;6.40;1.35;;;;;;;;;;5054862;28;20261;-85
2023/11/08 00:52:41;;;;;;;3.90;1.10;;;;;;;;;;5073172;28;20557;-85
2023/11/08 00:55:06;;;;;;;6.05;1.75;;;;;;;;;;5055180;28;20665;-85
2023/11/08 00:57:31;;;;;;;8.48;1.63;;;;;;;;;;5072942;28;20017;-84
2023/11/08 00:59:57;;;;;;;6.18;1.30;;;;;;;;;;5073098;28;20374;-85
2023/11/08 01:02:22;;;;;;;7.63;1.30;;;;;;;;;;5072857;28;20016;-85
2023/11/08 01:04:47;;;;;;;8.63;1.92;;;;;;;;;;5072967;28;20029;-85
2023/11/08 01:07:13;;;;;;;10.38;1.60;;;;;;;;;;5073033;28;20086;-85
2023/11/08 01:09:38;;;;;;;6.60;1.63;;;;;;;;;;5058511;28;20016;-85
2023/11/08 01:12:03;;;;;;;6.80;1.60;;;;;;;;;;5059061;28;20749;-85
2023/11/08 01:14:29;;;;;;;13.73;2.10;;;;;;;;;;5076752;28;20040;-85
2023/11/08 01:16:54;;;;;;;11.93;1.50;;;;;;;;;;5059060;28;20443;-85
2023/11/08 01:19:20;;;;;;;6.03;1.63;;;;;;;;;;5076799;28;20016;-85
2023/11/08 01:21:46;;;;;;;8.83;1.43;;;;;;;;;;5058947;28;20017;-85
2023/11/08 01:24:13;;;;;;;5.75;2.00;;;;;;;;;;5058659;28;20835;-85
2023/11/08 01:26:39;;;;;;;4.57;1.40;;;;;;;;;;5058918;28;20050;-85
2023/11/08 01:29:04;;;;;;;7.32;1.50;;;;;;;;;;5076741;28;20116;-85
2023/11/08 01:31:30;;;;;;;4.17;1.53;;;;;;;;;;5058523;28;20029;-84
2023/11/08 01:33:58;;;;;;;4.45;1.98;;;;;;;;;;5076552;28;20245;-83
2023/11/08 01:36:24;;;;;;;6.13;1.52;;;;;;;;;;5058626;28;20110;-84
2023/11/08 01:38:49;;;;;;;4.72;1.48;;;;;;;;;;5076408;28;20464;-84
2023/11/08 01:41:14;;;;;;;8.27;2.10;;;;;;;;;;5076484;28;20012;-84
2023/11/08 01:43:39;;;;;;;7.87;1.43;;;;;;;;;;5058508;28;20021;-85
2023/11/08 01:46:07;;;;;;;8.65;1.92;;;;;;;;;;5058436;28;20020;-85
2023/11/08 01:48:33;;;;;;;5.28;1.40;;;;;;;;;;5076136;28;20464;-85
2023/11/08 01:50:58;;;;;;;8.98;1.92;;;;;;;;;;5058403;28;20016;-85
2023/11/08 01:53:24;;;;;;;4.72;1.55;;;;;;;;;;5058338;28;20066;-85
2023/11/08 01:55:51;;;;;;;3.65;1.40;;;;;;;;;;5058083;28;20179;-85
2023/11/08 01:58:17;;;;;;;6.07;1.80;;;;;;;;;;5076195;28;20036;-85
2023/11/08 02:00:45;;;;;;;9.80;1.83;;;;;;;;;;5058050;28;20021;-85
2023/11/08 02:03:10;;;;;;;4.85;1.60;;;;;;;;;;5075799;28;20026;-85
2023/11/08 02:05:35;;;;;;;7.30;1.57;;;;;;;;;;5076044;28;20024;-85
2023/11/08 02:08:02;;;;;;;6.13;1.27;;;;;;;;;;5076140;28;20257;-84
2023/11/08 02:10:27;;;;;;;7.18;1.85;;;;;;;;;;5075990;28;20012;-84
2023/11/08 02:12:53;;;;;;;4.43;1.33;;;;;;;;;;5075914;28;20021;-84
2023/11/08 02:15:19;;;;;;;5.90;1.58;;;;;;;;;;5057804;28;20016;-85
2023/11/08 02:17:44;;;;;;;9.35;1.77;;;;;;;;;;5075814;28;20074;-85
2023/11/08 02:20:10;;;;;;;8.63;2.00;;;;;;;;;;5057227;28;20534;-85
2023/11/08 02:22:36;;;;;;;5.43;1.50;;;;;;;;;;5075525;28;20009;-85
2023/11/08 02:25:01;;;;;;;20.30;1.48;;;;;;;;;;5057517;28;20045;-85
2023/11/08 02:27:26;;;;;;;7.93;1.83;;;;;;;;;;5075656;28;20017;-85
2023/11/08 02:29:51;;;;;;;5.25;1.45;;;;;;;;;;5075405;28;20265;-85
2023/11/08 02:32:16;;;;;;;4.13;1.60;;;;;;;;;;5057611;28;20024;-85
2023/11/08 02:34:42;;;;;;;3.50;1.53;;;;;;;;;;5075489;28;20245;-84
2023/11/08 02:37:07;;;;;;;3.97;1.30;;;;;;;;;;5075235;28;20262;-85
2023/11/08 02:39:33;;;;;;;7.18;2.00;;;;;;;;;;5075063;28;20273;-85
2023/11/08 02:41:58;;;;;;;5.00;1.30;;;;;;;;;;5057402;28;20059;-85
2023/11/08 02:44:26;;;;;;;4.27;1.53;;;;;;;;;;5075365;28;20090;-85
2023/11/08 02:46:51;;;;;;;7.32;1.83;;;;;;;;;;5075227;28;20250;-84
2023/11/08 02:49:16;;;;;;;7.30;1.73;;;;;;;;;;5075230;28;20502;-85
2023/11/08 02:51:43;;;;;;;3.00;1.48;;;;;;;;;;5057211;28;20031;-85
2023/11/08 02:54:08;;;;;;;3.60;1.52;;;;;;;;;;5057161;28;20096;-85
2023/11/08 02:56:37;;;;;;;5.35;1.98;;;;;;;;;;5075042;28;20044;-85
2023/11/08 02:59:02;;;;;;;9.13;2.00;;;;;;;;;;5074631;28;20023;-84
2023/11/08 03:01:27;;;;;;;4.40;1.50;;;;;;;;;;5056974;28;20017;-85
2023/11/08 03:03:53;;;;;;;4.03;1.57;;;;;;;;;;5056960;28;20284;-85
2023/11/08 03:06:21;;;;;;;7.45;1.55;;;;;;;;;;5056950;28;20108;-85
2023/11/08 03:08:46;;;;;;;7.72;1.45;;;;;;;;;;5074795;28;20074;-85
2023/11/08 03:11:12;;;;;;;8.80;1.60;;;;;;;;;;5074792;28;20403;-84
2023/11/08 03:13:37;;;;;;;6.85;1.50;;;;;;;;;;5056839;28;20021;-84
2023/11/08 03:16:02;;;;;;;10.13;1.90;;;;;;;;;;5074781;28;20443;-84
2023/11/08 03:18:28;;;;;;;6.68;1.50;;;;;;;;;;5074461;28;20078;-84
2023/11/08 03:20:53;;;;;;;4.57;1.50;;;;;;;;;;5074272;28;20064;-85
2023/11/08 03:23:18;;;;;;;9.00;1.57;;;;;;;;;;5056649;28;20023;-84
2023/11/08 03:25:43;;;;;;;6.33;2.13;;;;;;;;;;5056391;28;20488;-85
2023/11/08 03:28:09;;;;;;;6.00;1.70;;;;;;;;;;5074251;28;20740;-85
2023/11/08 03:30:36;;;;;;;6.90;1.88;;;;;;;;;;5073694;28;20020;-85
2023/11/08 03:33:01;;;;;;;8.02;2.40;;;;;;;;;;5074405;28;20396;-85
2023/11/08 03:35:26;;;;;;;4.60;2.33;;;;;;;;;;5074221;28;20012;-85
2023/11/08 03:37:51;;;;;;;6.97;2.43;;;;;;;;;;5056343;28;20023;-85
2023/11/08 03:40:17;;;;;;;12.87;3.40;;;;;;;;;;5073866;28;20074;-85
2023/11/08 03:42:42;;;;;;;6.82;2.17;;;;;;;;;;5056213;28;20720;-85
2023/11/08 03:45:08;;;;;;;9.05;2.65;;;;;;;;;;5056177;28;20018;-85
2023/11/08 03:47:34;;;;;;;8.40;2.65;;;;;;;;;;5074168;28;20021;-85
2023/11/08 03:49:59;;;;;;;8.18;2.30;;;;;;;;;;5074027;28;20099;-85
2023/11/08 03:52:24;;;;;;;6.70;2.30;;;;;;;;;;5056151;28;20020;-85
2023/11/08 03:54:50;;;;;;;4.05;2.30;;;;;;;;;;5056011;28;20283;-85
2023/11/08 03:57:15;;;;;;;12.27;3.15;;;;;;;;;;5073863;28;20073;-85
2023/11/08 03:59:41;;;;;;;10.00;3.27;;;;;;;;;;5055849;28;20033;-84
2023/11/08 04:02:06;;;;;;;5.77;2.57;;;;;;;;;;5055855;28;20249;-84
2023/11/08 04:04:31;;;;;;;8.07;2.77;;;;;;;;;;5055602;28;20335;-85
2023/11/08 04:06:56;;;;;;;8.80;2.97;;;;;;;;;;5055773;28;20284;-85
2023/11/08 04:09:21;;;;;;;10.40;3.03;;;;;;;;;;5073661;28;20162;-85
2023/11/08 04:11:47;;;;;;;7.10;2.90;;;;;;;;;;5073684;28;20328;-85
2023/11/08 04:14:12;;;;;;;9.43;3.17;;;;;;;;;;5073566;28;20713;-85
2023/11/08 04:16:37;;;;;;;8.77;2.90;;;;;;;;;;5073368;28;20021;-84
2023/11/08 04:19:03;;;;;;;15.40;3.30;;;;;;;;;;5055246;28;20028;-85
2023/11/08 04:21:28;;;;;;;5.55;3.03;;;;;;;;;;5073555;28;20036;-85
2023/11/08 04:23:53;;;;;;;6.60;2.80;;;;;;;;;;5073297;28;20101;-85
2023/11/08 04:26:20;;;;;;;11.70;3.25;;;;;;;;;;5055540;28;20295;-85
2023/11/08 04:28:45;;;;;;;6.50;2.55;;;;;;;;;;5055206;28;20020;-85
2023/11/08 04:31:10;;;;;;;9.37;2.63;;;;;;;;;;5055399;28;20035;-84
2023/11/08 04:33:36;;;;;;;7.00;2.90;;;;;;;;;;5073420;28;20288;-84
2023/11/08 04:36:02;;;;;;;8.68;2.20;;;;;;;;;;5073342;28;20095;-84
2023/11/08 04:38:27;;;;;;;7.47;2.55;;;;;;;;;;5055147;28;20020;-85
2023/11/08 04:40:52;;;;;;;6.40;2.30;;;;;;;;;;5073256;28;20047;-85
2023/11/08 04:43:18;;;;;;;3.15;1.90;;;;;;;;;;5072386;28;20027;-85
2023/11/08 04:45:43;;;;;;;11.27;3.00;;;;;;;;;;5073285;28;20051;-85
2023/11/08 04:48:09;;;;;;;12.73;2.42;;;;;;;;;;5055200;28;20245;-84
2023/11/08 04:50:34;;;;;;;7.55;2.33;;;;;;;;;;5073279;28;20500;-85
2023/11/08 04:52:59;;;;;;;5.30;1.90;;;;;;;;;;5055261;28;20021;-84
2023/11/08 04:55:25;;;;;;;5.75;2.17;;;;;;;;;;5072911;28;20237;-84
2023/11/08 04:57:50;;;;;;;5.72;1.58;;;;;;;;;;5055087;28;20028;-85
2023/11/08 05:00:16;;;;;;;11.02;1.83;;;;;;;;;;5055035;28;20016;-85
2023/11/08 05:02:42;;;;;;;5.40;1.75;;;;;;;;;;5054833;28;20052;-85
2023/11/08 05:05:10;;;;;;;13.45;1.67;;;;;;;;;;5055152;28;20032;-85
2023/11/08 05:07:36;;;;;;;8.10;1.67;;;;;;;;;;5054924;28;20415;-85
2023/11/08 05:10:01;;;;;;;4.10;1.35;;;;;;;;;;5054901;28;20081;-84
2023/11/08 05:12:26;;;;;;;4.72;1.45;;;;;;;;;;5073014;28;20018;-85
2023/11/08 05:14:53;;;;;;;6.65;1.77;;;;;;;;;;5072959;28;20047;-85
2023/11/08 05:17:20;;;;;;;3.15;1.33;;;;;;;;;;5055046;28;20507;-85
2023/11/08 05:19:45;;;;;;;1.85;1.08;;;;;;;;;;5072866;28;20106;-84
2023/11/08 05:22:11;;;;;;;6.95;1.35;;;;;;;;;;5054935;28;20167;-86
2023/11/08 05:24:36;;;;;;;5.30;1.17;;;;;;;;;;5054664;28;20041;-84
2023/11/08 05:27:01;;;;;;;5.10;1.05;;;;;;;;;;5072990;28;20031;-86
2023/11/08 05:29:27;;;;;;;5.22;1.20;;;;;;;;;;5072087;28;20093;-85
2023/11/08 05:31:53;;;;;;;5.37;1.40;;;;;;;;;;5072283;28;20028;-85
2023/11/08 05:34:18;;;;;;;3.42;1.45;;;;;;;;;;5053934;28;20024;-86
2023/11/08 05:36:43;;;;;;;7.70;2.03;;;;;;;;;;5054225;28;20028;-84
2023/11/08 05:39:08;;;;;;;4.53;1.60;;;;;;;;;;5072666;28;20412;-84
2023/11/08 05:41:35;;;;;;;9.05;1.58;;;;;;;;;;5054748;28;20013;-84
2023/11/08 05:44:00;;;;;;;4.45;1.52;;;;;;;;;;5072621;28;20023;-84
2023/11/08 05:46:25;;;;;;;4.43;2.13;;;;;;;;;;5072646;28;20012;-84
2023/11/08 05:48:51;;;;;;;10.85;1.80;;;;;;;;;;5054589;28;20020;-84
2023/11/08 05:51:16;;;;;;;12.80;2.00;;;;;;;;;;5053557;28;20067;-84
2023/11/08 05:53:42;;;;;;;6.07;1.90;;;;;;;;;;5072738;28;20044;-85
2023/11/08 05:56:07;;;;;;;6.15;1.85;;;;;;;;;;5076183;28;20024;-85
2023/11/08 05:58:35;;;;;;;7.63;2.40;;;;;;;;;;5076115;28;20021;-85
2023/11/08 06:01:01;;;;;;;8.75;1.70;;;;;;;;;;5058089;28;20803;-84
2023/11/08 06:03:27;;;;;;;10.75;2.00;;;;;;;;;;5076048;28;20017;-84
2023/11/08 06:05:52;;;;;;;9.90;2.45;;;;;;;;;;5058090;28;20017;-84
2023/11/08 06:08:17;;;;;;;5.68;1.92;;;;;;;;;;5058122;28;20027;-84
2023/11/08 06:10:43;;;;;;;6.72;2.08;;;;;;;;;;5075969;28;20380;-84
2023/11/08 06:13:09;;;;;;;7.70;2.38;;;;;;;;;;5075970;28;20024;-84
2023/11/08 06:15:34;;;;;;;6.22;2.13;;;;;;;;;;5075834;28;20119;-84
2023/11/08 06:18:00;;;;;;;8.45;2.13;;;;;;;;;;5057812;28;20460;-84
2023/11/08 06:20:25;;;;;;;5.97;1.83;;;;;;;;;;5075672;28;20028;-84
2023/11/08 06:22:50;;;;;;;2.90;1.57;;;;;;;;;;5075778;28;20016;-84
2023/11/08 06:25:16;;;;;;;11.52;2.30;;;;;;;;;;5075578;28;20360;-84
2023/11/08 06:27:41;;;;;;;7.47;1.63;;;;;;;;;;5057644;28;20038;-84
2023/11/08 06:30:07;;;;;;;7.70;2.20;;;;;;;;;;5075633;28;20021;-84
2023/11/08 06:32:33;;;;;;;4.50;2.00;;;;;;;;;;5057576;28;20318;-84
2023/11/08 06:35:00;;;;;;;4.68;1.67;;;;;;;;;;5075452;28;20028;-84
2023/11/08 06:37:28;;;;;;;5.85;2.08;;;;;;;;;;5075473;28;20089;-85
2023/11/08 06:39:53;;;;;;;12.75;2.53;;;;;;;;;;5057379;28;20464;-84
2023/11/08 06:42:19;;;;;;;4.70;2.03;;;;;;;;;;5075347;28;20019;-84
2023/11/08 06:44:44;;;;;;;6.78;2.03;;;;;;;;;;5057390;28;20013;-85
2023/11/08 06:47:09;;;;;;;6.78;1.85;;;;;;;;;;5075287;28;20567;-84
2023/11/08 06:49:36;;;;;;;8.43;2.40;;;;;;;;;;5057358;28;20030;-84
2023/11/08 06:52:01;;;;;;;3.63;2.05;;;;;;;;;;5075323;28;20016;-84
2023/11/08 06:54:26;;;;;;;6.13;2.25;;;;;;;;;;5057176;28;20047;-84
2023/11/08 06:56:52;;;;;;;5.38;1.75;;;;;;;;;;5057210;28;20024;-84
2023/11/08 06:59:17;;;;;;;5.47;1.40;;;;;;;;;;5075007;28;20100;-84
2023/11/08 07:01:42;;;;;;;5.73;1.80;;;;;;;;;;5057078;28;20021;-85
2023/11/08 07:04:07;;;;;;;8.38;1.75;;;;;;;;;;5056974;28;20016;-85
2023/11/08 07:06:32;;;;;;;12.07;2.03;;;;;;;;;;5074067;28;20171;-84
2023/11/08 07:08:58;;;;;;;6.77;1.53;;;;;;;;;;5074865;28;20016;-84
2023/11/08 07:11:26;;;;;;;5.07;1.40;;;;;;;;;;5074789;28;20234;-85
2023/11/08 07:13:51;;;;;;;5.18;1.60;;;;;;;;;;5056835;28;20024;-84
2023/11/08 07:16:18;;;;;;;4.23;1.40;;;;;;;;;;5056765;28;20153;-84
2023/11/08 07:18:44;;;;;;;4.65;1.40;;;;;;;;;;5074640;28;20257;-85
2023/11/08 07:21:15;;;;;;;6.28;1.60;;;;;;;;;;5056694;28;20024;-85
2023/11/08 07:23:41;;;;;;;6.45;1.33;;;;;;;;;;5056428;28;20107;-84
2023/11/08 07:26:06;;;;;;;2.57;1.30;;;;;;;;;;5056548;28;20550;-84
2023/11/08 07:28:31;;;;;;;5.87;1.33;;;;;;;;;;5074459;28;20161;-84
2023/11/08 07:30:56;;;;;;;3.97;1.30;;;;;;;;;;5074408;28;20020;-85
2023/11/08 07:33:22;;;;;;;4.43;0.98;;;;;;;;;;5074349;28;20027;-84
2023/11/08 07:35:47;;;;;;;6.45;1.48;;;;;;;;;;5074284;28;20460;-84
2023/11/08 07:38:14;;;;;;;5.20;1.70;;;;;;;;;;5074288;28;20099;-85
2023/11/08 07:40:40;;;;;;;9.85;1.17;;;;;;;;;;5056197;28;20275;-84
2023/11/08 07:43:07;;;;;;;7.35;1.48;;;;;;;;;;5056286;28;20020;-85
2023/11/08 07:45:32;;;;;;;8.20;1.40;;;;;;;;;;5074173;28;20066;-85
2023/11/08 07:48:01;;;;;;;12.55;1.30;;;;;;;;;;5056160;28;20016;-84
2023/11/08 07:50:26;;;;;;;3.78;1.40;;;;;;;;;;5074039;28;20020;-85
2023/11/08 07:52:51;;;;;;;3.10;1.00;;;;;;;;;;5074000;28;20078;-85
2023/11/08 07:55:16;;;;;;;5.40;1.53;;;;;;;;;;5073919;28;20291;-85
2023/11/08 07:57:42;;;;;;;3.73;1.10;;;;;;;;;;5073863;28;20126;-85
2023/11/08 08:00:14;;;;;;;7.47;1.20;;;;;;;;;;5055908;28;20368;-85
2023/11/08 08:02:39;;;;;;;4.95;1.10;;;;;;;;;;5055909;28;20024;-85
2023/11/08 08:05:05;;;;;;;10.15;1.35;;;;;;;;;;5055916;28;20021;-85
2023/11/08 08:07:30;;;;;;;5.15;1.63;;;;;;;;;;5073692;28;20567;-85
2023/11/08 08:09:55;;;;;;;3.58;1.10;;;;;;;;;;5055805;28;20058;-85
2023/11/08 08:12:20;;;;;;;1.73;1.07;;;;;;;;;;5055652;28;20396;-85
2023/11/08 08:14:46;;;;;;;2.13;1.23;;;;;;;;;;5055697;28;20028;-84
2023/11/08 08:17:12;;;;;;;8.40;1.63;;;;;;;;;;5073491;28;20073;-84
2023/11/08 08:19:38;;;;;;;6.32;1.08;;;;;;;;;;5055529;28;20360;-85
2023/11/08 08:22:04;;;;;;;3.65;1.08;;;;;;;;;;5073810;28;20051;-85
2023/11/08 08:24:29;;;;;;;8.30;2.05;;;;;;;;;;5055379;28;20049;-85
2023/11/08 08:26:55;;;;;;;5.82;1.10;;;;;;;;;;5073469;28;20054;-85
2023/11/08 08:29:22;;;;;;;5.80;1.25;;;;;;;;;;5055479;28;20028;-85
2023/11/08 08:31:48;;;;;;;3.95;1.27;;;;;;;;;;5055378;28;20028;-85
2023/11/08 08:34:14;;;;;;;2.35;0.90;;;;;;;;;;5055298;28;20025;-85
2023/11/08 08:36:41;;;;;;;4.28;1.10;;;;;;;;;;5055456;28;20049;-85
2023/11/08 08:39:06;;;;;;;3.50;1.13;;;;;;;;;;5055175;28;20016;-85
2023/11/08 08:41:31;;;;;;;4.20;1.23;;;;;;;;;;5073339;28;20473;-85
2023/11/08 08:43:57;;;;;;;4.30;1.33;;;;;;;;;;5073256;28;20717;-85
2023/11/08 08:46:22;;;;;;;2.70;1.00;;;;;;;;;;5073365;28;20726;-84
2023/11/08 08:48:49;;;;;;;4.73;1.47;;;;;;;;;;5055231;28;20357;-85
2023/11/08 08:51:14;;;;;;;4.00;1.42;;;;;;;;;;5055198;28;20030;-85
2023/11/08 08:53:40;;;;;;;4.37;0.80;;;;;;;;;;5073258;28;20103;-85
2023/11/08 08:56:05;;;;;;;4.93;1.67;;;;;;;;;;5055222;28;20352;-85
2023/11/08 08:58:32;;;;;;;4.07;1.30;;;;;;;;;;5055087;28;20333;-85
2023/11/08 09:00:57;;;;;;;2.00;1.00;;;;;;;;;;5073064;28;20533;-85
2023/11/08 09:03:22;;;;;;;3.35;0.95;;;;;;;;;;5073050;28;20092;-85
2023/11/08 09:05:48;;;;;;;3.75;1.13;;;;;;;;;;5055039;28;20013;-84
2023/11/08 09:08:13;;;;;;;3.77;1.23;;;;;;;;;;5055073;28;20017;-85
2023/11/08 09:10:38;;;;;;;3.43;0.93;;;;;;;;;;5054986;28;20245;-85
2023/11/08 09:13:03;;;;;;;8.33;0.93;;;;;;;;;;5054935;28;20352;-85
2023/11/08 09:15:30;;;;;;;1.83;0.70;;;;;;;;;;5072985;28;20302;-85
2023/11/08 09:17:56;;;;;;;6.03;1.15;;;;;;;;;;5072950;28;20256;-85
2023/11/08 09:20:21;;;;;;;2.45;0.80;;;;;;;;;;5072847;28;20032;-84
2023/11/08 09:22:47;;;;;;;3.13;1.20;;;;;;;;;;5054918;28;20473;-85
2023/11/08 09:25:13;;;;;;;2.97;0.88;;;;;;;;;;5054689;28;20049;-84
2023/11/08 09:27:38;;;;;;;4.43;1.15;;;;;;;;;;5054897;28;20115;-85
2023/11/08 09:30:04;;;;;;;1.30;0.63;;;;;;;;;;5075372;28;20033;-85
2023/11/08 09:32:30;;;;;;;4.63;1.20;;;;;;;;;;5076667;28;20024;-85
2023/11/08 09:34:55;;;;;;;1.65;0.90;;;;;;;;;;5076555;28;20012;-85
2023/11/08 09:37:20;;;;;;;1.77;0.82;;;;;;;;;;5076565;28;20013;-85
2023/11/08 09:39:49;;;;;;;3.08;0.93;;;;;;;;;;5076446;28;20081;-85
2023/11/08 09:42:16;;;;;;;2.10;0.85;;;;;;;;;;5076488;28;20016;-85
2023/11/08 09:44:42;;;;;;;2.65;0.80;;;;;;;;;;5058551;28;20479;-85
2023/11/08 09:47:09;;;;;;;3.40;0.88;;;;;;;;;;5058659;28;20026;-85
2023/11/08 09:49:36;;;;;;;2.85;0.95;;;;;;;;;;5076374;28;20104;-85
2023/11/08 09:52:01;;;;;;;2.13;1.02;;;;;;;;;;5058388;28;20078;-84
2023/11/08 09:54:26;;;;;;;4.07;0.90;;;;;;;;;;5058349;28;20021;-85
2023/11/08 09:56:51;;;;;;;4.47;1.20;;;;;;;;;;5058300;28;20261;-85
2023/11/08 09:59:17;;;;;;;3.90;1.00;;;;;;;;;;5058178;28;20481;-84
2023/11/08 10:01:46;;;;;;;1.40;0.88;;;;;;;;;;5058178;28;20114;-84
2023/11/08 10:04:15;;;;;;;3.60;1.05;;;;;;;;;;5058101;28;20021;-84
2023/11/08 10:06:44;;;;;;;4.05;0.88;;;;;;;;;;5076183;28;20354;-85
2023/11/08 10:09:11;;;;;;;1.50;0.80;;;;;;;;;;5058118;28;20021;-85
2023/11/08 10:11:37;;;;;;;1.83;0.90;;;;;;;;;;5057982;28;20381;-85
2023/11/08 10:14:02;;;;;;;1.10;0.85;;;;;;;;;;5057911;28;20024;-85
2023/11/08 10:16:28;;;;;;;4.43;1.17;;;;;;;;;;5075900;28;20023;-84
2023/11/08 10:18:55;;;;;;;1.50;0.90;;;;;;;;;;5075800;28;20047;-85
2023/11/08 10:21:21;;;;;;;3.85;0.82;;;;;;;;;;5057869;28;20518;-85
2023/11/08 10:23:50;;;;;;;2.55;0.88;;;;;;;;;;5075593;28;20033;-85
2023/11/08 10:26:23;;;;;;;3.63;1.10;;;;;;;;;;5075712;28;20016;-85
2023/11/08 10:29:03;;;;;;;4.88;1.00;;;;;;;;;;5075647;28;20016;-85
2023/11/08 10:31:29;;;;;;;3.28;0.88;;;;;;;;;;5057595;28;20036;-85
2023/11/08 10:33:57;;;;;;;9.38;1.45;;;;;;;;;;5075540;28;20514;-85
2023/11/08 10:36:27;;;;;;;2.75;1.13;;;;;;;;;;5057601;28;20027;-85
2023/11/08 10:38:53;;;;;;;5.80;1.10;;;;;;;;;;5057494;28;20477;-84
2023/11/08 10:41:19;;;;;;;6.25;1.45;;;;;;;;;;5074121;28;20038;-85
2023/11/08 10:43:44;;;;;;;2.58;1.10;;;;;;;;;;5057443;28;20139;-85
2023/11/08 10:46:12;;;;;;;3.37;1.40;;;;;;;;;;5057401;28;20017;-84
2023/11/08 10:48:38;;;;;;;2.92;1.25;;;;;;;;;;5057319;28;20256;-84
2023/11/08 10:51:06;;;;;;;6.03;1.50;;;;;;;;;;5057304;28;20020;-84
2023/11/08 10:53:31;;;;;;;3.05;1.52;;;;;;;;;;5075151;28;20253;-85
2023/11/08 10:56:01;;;;;;;4.28;1.60;;;;;;;;;;5075197;28;20029;-85
2023/11/08 10:58:33;;;;;;;3.38;1.52;;;;;;;;;;5057142;28;20115;-84
2023/11/08 11:00:59;;;;;;;;;;;;;;;;;;5075425;28;20103;-85
2023/11/08 11:03:25;;;;;;;4.22;1.40;;;;;;;;;;5074979;28;19932;-85
2023/11/08 11:05:51;;;;;;;1.50;1.08;;;;;;;;;;5074967;28;20353;-84
2023/11/08 11:08:19;;;;;;;4.50;1.48;;;;;;;;;;5056893;28;20021;-85
2023/11/08 11:10:44;;;;;;;3.58;1.10;;;;;;;;;;5074878;28;20537;-85
2023/11/08 11:13:13;;;;;;;3.83;1.27;;;;;;;;;;5074858;28;20024;-85
2023/11/08 11:15:39;;;;;;;5.72;1.20;;;;;;;;;;5074840;28;20027;-84
2023/11/08 11:18:09;;;;;;;3.70;1.30;;;;;;;;;;5056769;28;20025;-84
2023/11/08 11:20:39;;;;;;;2.58;1.27;;;;;;;;;;5074560;28;20031;-84
2023/11/08 11:23:23;;;;;;;2.75;1.38;;;;;;;;;;5074600;28;20013;-85
2023/11/08 11:25:48;;;;;;;2.85;1.10;;;;;;;;;;5074372;28;20496;-84
2023/11/08 11:28:14;;;;;;;2.75;1.25;;;;;;;;;;5056550;28;20012;-85
2023/11/08 11:30:39;;;;;;;3.47;1.30;;;;;;;;;;5056548;28;20021;-84
2023/11/08 11:33:05;;;;;;;2.30;0.90;;;;;;;;;;5074395;28;20362;-84
2023/11/08 11:35:30;;;;;;;3.83;1.20;;;;;;;;;;5056316;28;20021;-85
2023/11/08 11:38:07;;;;;;;4.60;1.30;;;;;;;;;;5074281;28;20020;-85
2023/11/08 11:40:36;;;;;;;2.67;1.25;;;;;;;;;;5056216;28;20020;-84
2023/11/08 11:43:02;;;;;;;2.85;1.38;;;;;;;;;;5056312;28;20017;-84
2023/11/08 11:45:30;;;;;;;3.05;1.35;;;;;;;;;;5074215;28;20031;-85
2023/11/08 11:47:55;;;;;;;4.20;1.52;;;;;;;;;;5074136;28;20012;-84
2023/11/08 11:50:21;;;;;;;3.40;1.30;;;;;;;;;;5074009;28;20377;-85
2023/11/08 11:52:48;;;;;;;1.85;1.10;;;;;;;;;;5055725;28;20078;-84
2023/11/08 11:55:14;;;;;;;1.30;1.10;;;;;;;;;;5056041;28;20029;-85
2023/11/08 11:57:40;;;;;;;4.10;1.35;;;;;;;;;;5073993;28;20104;-85
2023/11/08 12:00:06;;;;;;;6.90;1.50;;;;;;;;;;5055828;28;20112;-85
2023/11/08 12:02:32;;;;;;;3.00;1.25;;;;;;;;;;5073807;28;20714;-84
2023/11/08 12:04:57;;;;;;;5.55;1.92;;;;;;;;;;5073712;28;20027;-84
2023/11/08 12:07:23;;;;;;;4.30;1.60;;;;;;;;;;5055870;28;20107;-84
2023/11/08 12:09:48;;;;;;;2.13;1.15;;;;;;;;;;5073763;28;20468;-84
2023/11/08 12:12:24;;;;;;;4.03;1.50;;;;;;;;;;5073712;28;20504;-85
2023/11/08 12:14:49;;;;;;;2.63;1.17;;;;;;;;;;5073660;28;20012;-84
2023/11/08 12:17:14;;;;;;;4.40;1.10;;;;;;;;;;5073728;28;20028;-84
2023/11/08 12:19:40;;;;;;;2.30;1.10;;;;;;;;;;5073571;28;20276;-84
2023/11/08 12:22:05;;;;;;;1.48;0.98;;;;;;;;;;5055645;28;20107;-84
2023/11/08 12:24:31;;;;;;;1.70;1.10;;;;;;;;;;5055430;28;20056;-85
2023/11/08 12:26:57;;;;;;;1.55;0.85;;;;;;;;;;5055580;28;20027;-85
2023/11/08 12:29:22;;;;;;;1.83;0.90;;;;;;;;;;5073415;28;20032;-85
2023/11/08 12:31:48;;;;;;;2.20;1.00;;;;;;;;;;5055612;28;20025;-85
2023/11/08 12:34:14;;;;;;;4.78;1.10;;;;;;;;;;5073416;28;20024;-84
2023/11/08 12:36:39;;;;;;;5.30;1.10;;;;;;;;;;5073473;28;20012;-85
2023/11/08 12:39:10;;;;;;;5.63;1.23;;;;;;;;;;5055360;28;20081;-85
2023/11/08 12:41:44;;;;;;;4.20;1.10;;;;;;;;;;5055427;28;20484;-85
2023/11/08 12:44:09;;;;;;;4.03;1.13;;;;;;;;;;5055312;28;20392;-85
2023/11/08 12:46:44;;;;;;;2.57;1.20;;;;;;;;;;5073300;28;20013;-85
2023/11/08 12:49:14;;;;;;;3.33;0.90;;;;;;;;;;5055304;28;20238;-84
2023/11/08 12:51:40;;;;;;;1.92;0.88;;;;;;;;;;5055237;28;20016;-84
2023/11/08 12:54:08;;;;;;;2.17;1.10;;;;;;;;;;5055249;28;20078;-84
2023/11/08 12:56:38;;;;;;;3.85;1.20;;;;;;;;;;5073187;28;20020;-84
2023/11/08 12:59:11;;;;;;;3.58;1.20;;;;;;;;;;5055070;28;20019;-84
2023/11/08 13:01:36;;;;;;;6.32;1.30;;;;;;;;;;5073096;28;20031;-84
2023/11/08 13:04:01;;;;;;;4.53;1.07;;;;;;;;;;5074106;28;20017;-84
2023/11/08 13:06:30;;;;;;;3.45;1.20;;;;;;;;;;5059257;28;20384;-84
2023/11/08 13:08:56;;;;;;;2.67;0.80;;;;;;;;;;5059189;28;20026;-84
2023/11/08 13:11:21;;;;;;;2.80;0.90;;;;;;;;;;5077151;28;20020;-84
2023/11/08 13:13:47;;;;;;;2.40;1.07;;;;;;;;;;5059115;28;20150;-85
2023/11/08 13:16:13;;;;;;;2.30;0.85;;;;;;;;;;5077073;28;20311;-85
2023/11/08 13:18:38;;;;;;;2.70;1.20;;;;;;;;;;5076985;28;20063;-85
2023/11/08 13:21:03;;;;;;;2.10;0.93;;;;;;;;;;5058888;28;20024;-84
2023/11/08 13:23:29;;;;;;;3.90;1.00;;;;;;;;;;5076709;28;20411;-84
2023/11/08 13:25:54;;;;;;;4.25;1.10;;;;;;;;;;5076894;28;20048;-84
2023/11/08 13:28:21;;;;;;;4.32;0.77;;;;;;;;;;5076861;28;20044;-84
2023/11/08 13:30:46;;;;;;;2.33;0.90;;;;;;;;;;5058775;28;20028;-84
2023/11/08 13:33:12;;;;;;;2.88;0.77;;;;;;;;;;5076780;28;20020;-84
2023/11/08 13:35:38;;;;;;;2.33;1.08;;;;;;;;;;5076540;28;20016;-84
2023/11/08 13:38:04;;;;;;;4.20;1.10;;;;;;;;;;5058622;28;20056;-84
2023/11/08 13:40:29;;;;;;;2.67;0.75;;;;;;;;;;5058533;28;20082;-84
2023/11/08 13:42:55;;;;;;;1.83;0.83;;;;;;;;;;5058533;28;20024;-84
2023/11/08 13:45:22;;;;;;;1.17;0.80;;;;;;;;;;5058547;28;20255;-84
2023/11/08 13:47:47;;;;;;;0.90;0.70;;;;;;;;;;5058486;28;20055;-84
2023/11/08 13:50:13;;;;;;;2.08;0.80;;;;;;;;;;5058444;28;20055;-84
2023/11/08 13:52:40;;;;;;;2.47;1.20;;;;;;;;;;5076310;28;20042;-84
2023/11/08 13:55:05;;;;;;;3.80;1.20;;;;;;;;;;5076229;28;20384;-84
2023/11/08 13:57:32;;;;;;;3.15;1.10;;;;;;;;;;5076318;28;20023;-84
2023/11/08 13:59:58;;;;;;;2.92;0.90;;;;;;;;;;5076087;28;20578;-85
2023/11/08 14:02:25;;;;;;;4.43;1.20;;;;;;;;;;5076129;28;20017;-84
2023/11/08 14:04:51;;;;;;;3.03;0.90;;;;;;;;;;5076154;28;20009;-84
2023/11/08 14:07:16;;;;;;;2.40;1.00;;;;;;;;;;5076106;28;20043;-84
2023/11/08 14:09:41;;;;;;;7.97;1.60;;;;;;;;;;5058096;28;20020;-84
2023/11/08 14:12:09;;;;;;;4.07;1.13;;;;;;;;;;5076000;28;20788;-84
2023/11/08 14:14:34;;;;;;;2.00;0.95;;;;;;;;;;5057687;28;20265;-84
2023/11/08 14:16:59;;;;;;;2.72;1.27;;;;;;;;;;5057964;28;20365;-84
2023/11/08 14:19:24;;;;;;;2.33;0.97;;;;;;;;;;5075805;28;20029;-84
2023/11/08 14:21:50;;;;;;;1.83;1.00;;;;;;;;;;5075879;28;20264;-84
2023/11/08 14:24:15;;;;;;;2.15;1.05;;;;;;;;;;5075606;28;20044;-84
2023/11/08 14:26:40;;;;;;;1.65;0.77;;;;;;;;;;5075785;28;20074;-84
2023/11/08 14:29:06;;;;;;;3.20;1.20;;;;;;;;;;5075668;28;20384;-84
2023/11/08 14:31:31;;;;;;;3.03;1.03;;;;;;;;;;5075702;28;20024;-84
2023/11/08 14:33:58;;;;;;;1.83;1.13;;;;;;;;;;5075544;28;20028;-84
2023/11/08 14:36:23;;;;;;;4.88;1.10;;;;;;;;;;5057492;28;20016;-84